Time;durP1;ratioP1;P1;durP2;ratioP2;P2;SDS_P1;SDS_P2;PMS_P1;PMS_P2;Temp;Humidity;BMP_temperature;BMP_pressure;BME280_temperature;BME280_humidity;BME280_pressure;Samples;Min_cycle;Max_cycle;Signal;HPM_P1;HPM_P2
2023/06/11 00:01:23;;;;;;;10.10;8.30;;;19.00;99.90;;;;;;5047759;28;20047;-33
2023/06/11 00:03:52;;;;;;;9.63;8.70;;;19.00;99.90;;;;;;5042720;28;20056;-33
2023/06/11 00:06:22;;;;;;;12.43;8.85;;;19.00;99.90;;;;;;5048030;28;20068;-33
2023/06/11 00:08:54;;;;;;;9.63;8.50;;;19.00;99.90;;;;;;5047308;28;20486;-33
2023/06/11 00:11:21;;;;;;;10.68;9.57;;;19.00;99.90;;;;;;5042099;28;20076;-33
2023/06/11 00:13:48;;;;;;;10.38;9.00;;;19.00;99.90;;;;;;5042058;28;20133;-33
2023/06/11 00:16:15;;;;;;;10.73;9.82;;;19.00;99.90;;;;;;5045280;28;20041;-33
2023/06/11 00:18:41;;;;;;;9.88;9.02;;;19.10;99.90;;;;;;5047516;28;20140;-33
2023/06/11 00:21:08;;;;;;;10.65;9.50;;;19.10;99.90;;;;;;5047189;28;20441;-33
2023/06/11 00:23:36;;;;;;;11.02;9.93;;;19.10;99.90;;;;;;5042059;28;20444;-33
2023/06/11 00:26:05;;;;;;;10.27;9.48;;;19.10;99.90;;;;;;5047006;28;20037;-33
2023/06/11 00:28:30;;;;;;;10.00;8.95;;;19.10;99.90;;;;;;5046698;28;20085;-34
2023/06/11 00:30:56;;;;;;;10.52;9.55;;;19.20;99.90;;;;;;5027612;28;20119;-34
2023/06/11 00:33:22;;;;;;;9.75;8.95;;;19.20;99.90;;;;;;5046225;28;20048;-33
2023/06/11 00:35:48;;;;;;;10.27;9.25;;;19.20;99.90;;;;;;5032886;28;20072;-33
2023/06/11 00:38:15;;;;;;;9.93;8.98;;;19.20;99.90;;;;;;5047024;28;20033;-32
2023/06/11 00:40:41;;;;;;;10.05;9.00;;;19.20;99.90;;;;;;5047063;28;20040;-33
2023/06/11 00:43:07;;;;;;;10.32;9.30;;;19.20;99.90;;;;;;5029751;28;20546;-33
2023/06/11 00:45:35;;;;;;;9.55;8.68;;;19.20;99.90;;;;;;5030654;28;20474;-33
2023/06/11 00:48:01;;;;;;;9.57;8.68;;;19.20;99.90;;;;;;5046919;28;20033;-33
2023/06/11 00:50:28;;;;;;;10.45;9.05;;;19.10;99.90;;;;;;5047040;28;20426;-33
2023/06/11 00:52:54;;;;;;;9.20;8.45;;;19.10;99.90;;;;;;5047070;28;20120;-32
2023/06/11 00:55:20;;;;;;;9.25;8.55;;;19.10;99.90;;;;;;5048434;28;20102;-33
2023/06/11 00:57:47;;;;;;;9.93;9.07;;;19.10;99.90;;;;;;5044932;28;20091;-33
2023/06/11 01:00:14;;;;;;;8.98;8.23;;;19.10;99.90;;;;;;5040565;28;20072;-33
2023/06/11 01:02:49;;;;;;;10.52;9.18;;;19.00;99.90;;;;;;5028182;28;20145;-33
2023/06/11 01:05:17;;;;;;;9.63;8.82;;;19.00;99.90;;;;;;5040884;28;20034;-33
2023/06/11 01:07:50;;;;;;;9.50;8.48;;;19.00;99.90;;;;;;5049435;28;20049;-32
2023/06/11 01:10:20;;;;;;;8.98;8.18;;;18.90;99.90;;;;;;5050330;28;20045;-33
2023/06/11 01:12:47;;;;;;;9.25;8.55;;;18.90;99.90;;;;;;5034010;28;20075;-33
2023/06/11 01:15:16;;;;;;;9.98;9.07;;;18.80;99.90;;;;;;5036097;28;20037;-33
2023/06/11 01:17:54;;;;;;;9.52;8.68;;;18.80;99.90;;;;;;5038211;28;20049;-34
2023/06/11 01:20:35;;;;;;;10.13;9.18;;;18.80;99.90;;;;;;5041772;28;20371;-33
2023/06/11 01:23:09;;;;;;;9.45;8.60;;;18.70;99.90;;;;;;5050584;28;20116;-33
2023/06/11 01:26:04;;;;;;;10.10;9.20;;;18.70;99.90;;;;;;5033864;28;20085;-33
2023/06/11 01:28:33;;;;;;;10.13;9.20;;;18.60;99.90;;;;;;5050389;28;20073;-33
2023/06/11 01:31:04;;;;;;;9.98;8.95;;;18.60;99.90;;;;;;5059324;28;20041;-33
2023/06/11 01:33:35;;;;;;;10.18;9.27;;;18.50;99.90;;;;;;5045087;28;20045;-33
2023/06/11 01:36:01;;;;;;;9.55;8.75;;;18.50;99.90;;;;;;5048218;28;20034;-32
2023/06/11 01:38:30;;;;;;;8.77;7.97;;;18.40;99.90;;;;;;5050130;28;20395;-33
2023/06/11 01:41:00;;;;;;;10.65;9.75;;;18.40;99.90;;;;;;5043201;28;20084;-33
2023/06/11 01:43:25;;;;;;;9.90;8.95;;;18.40;99.90;;;;;;5053387;28;20509;-33
2023/06/11 01:45:51;;;;;;;10.57;8.93;;;18.40;99.90;;;;;;5050506;28;20033;-32
2023/06/11 01:48:17;;;;;;;10.30;9.40;;;18.30;99.90;;;;;;5034872;28;20095;-33
2023/06/11 01:50:43;;;;;;;9.82;9.00;;;18.30;99.90;;;;;;5049532;28;20041;-33
2023/06/11 01:53:10;;;;;;;9.95;9.15;;;18.20;99.90;;;;;;5042357;28;20081;-32
2023/06/11 01:55:36;;;;;;;9.90;9.02;;;18.20;99.90;;;;;;5049775;28;20041;-33
2023/06/11 01:58:02;;;;;;;10.05;9.20;;;18.20;99.90;;;;;;5054460;28;20308;-33
2023/06/11 02:00:28;;;;;;;10.10;9.10;;;18.20;99.90;;;;;;5049550;28;20490;-32
2023/06/11 02:02:54;;;;;;;10.20;9.32;;;18.10;99.90;;;;;;5047111;28;20037;-33
2023/06/11 02:05:20;;;;;;;9.20;8.50;;;18.00;99.90;;;;;;5033063;28;20045;-33
2023/06/11 02:07:45;;;;;;;10.48;9.48;;;18.00;99.90;;;;;;5049660;28;20037;-33
2023/06/11 02:10:11;;;;;;;11.27;10.23;;;18.00;99.90;;;;;;5033227;28;20121;-33
2023/06/11 02:12:37;;;;;;;12.10;10.40;;;17.90;99.90;;;;;;5047809;28;20034;-33
2023/06/11 02:15:05;;;;;;;10.65;9.70;;;17.80;99.90;;;;;;5024553;28;20121;-33
2023/06/11 02:17:30;;;;;;;9.52;8.68;;;17.80;99.90;;;;;;5048878;28;20044;-33
2023/06/11 02:19:56;;;;;;;11.10;10.10;;;17.80;99.90;;;;;;5014420;28;20029;-32
2023/06/11 02:22:22;;;;;;;10.90;9.90;;;17.80;99.90;;;;;;5049789;28;20128;-33
2023/06/11 02:24:48;;;;;;;10.82;9.73;;;17.70;99.90;;;;;;5057566;28;20041;-32
2023/06/11 02:27:13;;;;;;;11.45;10.35;;;17.70;99.90;;;;;;5042738;28;20033;-34
2023/06/11 02:29:39;;;;;;;10.70;9.90;;;17.60;99.90;;;;;;5049221;28;20041;-32
2023/06/11 02:32:07;;;;;;;10.82;9.75;;;17.60;99.90;;;;;;5032434;28;20399;-32
2023/06/11 02:34:32;;;;;;;11.05;10.07;;;17.50;99.90;;;;;;5049104;28;20049;-33
2023/06/11 02:36:58;;;;;;;11.55;10.45;;;17.50;99.90;;;;;;5048922;28;20033;-33
2023/06/11 02:39:24;;;;;;;11.20;10.13;;;17.50;99.90;;;;;;5048013;28;20032;-33
2023/06/11 02:41:50;;;;;;;10.55;9.45;;;17.50;99.90;;;;;;5048977;28;20048;-33
2023/06/11 02:44:15;;;;;;;11.07;10.07;;;17.50;99.90;;;;;;5032110;28;20049;-32
2023/06/11 02:46:41;;;;;;;10.95;9.88;;;17.50;99.90;;;;;;5048048;28;20037;-33
2023/06/11 02:49:07;;;;;;;11.20;10.20;;;17.40;99.90;;;;;;5032028;28;20037;-33
2023/06/11 02:51:33;;;;;;;11.55;10.32;;;17.40;99.90;;;;;;5049123;28;20045;-33
2023/06/11 02:53:58;;;;;;;11.32;10.38;;;17.40;99.90;;;;;;5039108;28;20034;-34
2023/06/11 02:56:24;;;;;;;10.93;9.95;;;17.40;99.90;;;;;;5046147;28;20453;-33
2023/06/11 02:58:50;;;;;;;10.95;10.13;;;17.30;99.90;;;;;;5048597;28;20036;-33
2023/06/11 03:01:15;;;;;;;11.40;10.50;;;17.30;99.90;;;;;;5048938;28;20034;-33
2023/06/11 03:03:41;;;;;;;11.20;10.20;;;17.30;99.90;;;;;;5039922;28;20034;-33
2023/06/11 03:06:08;;;;;;;11.18;10.18;;;17.30;99.90;;;;;;5029580;28;20056;-34
2023/06/11 03:08:35;;;;;;;12.68;11.40;;;17.20;99.90;;;;;;5048233;28;20096;-32
2023/06/11 03:11:00;;;;;;;11.40;10.40;;;17.20;99.90;;;;;;5048776;28;20041;-32
2023/06/11 03:13:26;;;;;;;12.70;10.25;;;17.20;99.90;;;;;;5048709;28;20494;-31
2023/06/11 03:15:52;;;;;;;11.43;10.43;;;17.20;99.90;;;;;;5060041;28;20045;-32
2023/06/11 03:18:17;;;;;;;12.27;11.18;;;17.20;99.90;;;;;;5035217;28;20030;-33
2023/06/11 03:20:43;;;;;;;11.20;10.20;;;17.10;99.90;;;;;;5048463;28;20041;-33
2023/06/11 03:23:10;;;;;;;11.77;10.77;;;17.20;99.90;;;;;;5049013;28;20056;-33
2023/06/11 03:25:36;;;;;;;12.48;11.23;;;17.10;99.90;;;;;;5047761;28;20049;-33
2023/06/11 03:28:02;;;;;;;11.35;10.32;;;17.10;99.90;;;;;;5048333;28;20489;-32
2023/06/11 03:30:28;;;;;;;12.25;11.15;;;17.10;99.90;;;;;;5049068;28;20037;-33
2023/06/11 03:32:53;;;;;;;12.55;11.35;;;17.10;99.90;;;;;;5048071;28;20142;-33
2023/06/11 03:35:19;;;;;;;13.07;11.88;;;17.10;99.90;;;;;;5042494;28;20041;-33
2023/06/11 03:37:45;;;;;;;12.38;11.30;;;17.10;99.90;;;;;;5031711;28;20045;-33
2023/06/11 03:40:11;;;;;;;12.27;11.27;;;17.00;99.90;;;;;;5047417;28;20045;-33
2023/06/11 03:42:37;;;;;;;13.10;11.88;;;17.10;99.90;;;;;;5032293;28;20060;-33
2023/06/11 03:45:03;;;;;;;12.55;11.45;;;17.00;99.90;;;;;;5037522;28;20072;-33
2023/06/11 03:47:28;;;;;;;12.75;11.55;;;17.10;99.90;;;;;;5048174;28;20451;-33
2023/06/11 03:49:54;;;;;;;12.85;11.75;;;17.10;99.90;;;;;;5047654;28;20486;-33
2023/06/11 03:52:20;;;;;;;12.98;11.98;;;17.10;99.90;;;;;;5055296;28;20033;-33
2023/06/11 03:54:45;;;;;;;12.07;10.85;;;17.10;99.90;;;;;;5051443;28;20037;-33
2023/06/11 03:57:12;;;;;;;12.60;11.43;;;17.10;99.90;;;;;;5047736;28;20076;-33
2023/06/11 03:59:38;;;;;;;13.27;12.07;;;17.10;99.90;;;;;;5030977;28;20035;-32
2023/06/11 04:02:04;;;;;;;12.70;11.52;;;17.10;99.90;;;;;;5030856;28;20033;-33
2023/06/11 04:04:32;;;;;;;13.68;12.32;;;17.10;99.90;;;;;;5047249;28;20176;-33
2023/06/11 04:06:58;;;;;;;12.98;11.80;;;17.20;99.90;;;;;;5047478;28;20561;-33
2023/06/11 04:09:24;;;;;;;12.60;11.50;;;17.20;99.90;;;;;;5047579;28;20116;-33
2023/06/11 04:11:50;;;;;;;14.40;11.60;;;17.20;99.90;;;;;;5047294;28;20040;-33
2023/06/11 04:14:16;;;;;;;13.30;12.15;;;17.20;99.90;;;;;;5047520;28;20037;-33
2023/06/11 04:16:41;;;;;;;12.57;11.57;;;17.30;99.90;;;;;;5047501;28;20485;-32
2023/06/11 04:19:07;;;;;;;13.60;12.32;;;17.30;99.90;;;;;;5047287;28;20037;-32
2023/06/11 04:21:33;;;;;;;12.70;11.68;;;17.30;99.90;;;;;;5047237;28;20037;-33
2023/06/11 04:23:59;;;;;;;12.88;11.57;;;17.30;99.90;;;;;;5047490;28;20037;-32
2023/06/11 04:26:25;;;;;;;13.30;12.02;;;17.40;99.90;;;;;;5047211;28;20120;-33
2023/06/11 04:28:52;;;;;;;13.73;12.45;;;17.40;99.90;;;;;;5030194;28;20038;-33
2023/06/11 04:31:19;;;;;;;12.90;11.70;;;17.40;99.90;;;;;;5047084;28;20045;-33
2023/06/11 04:33:46;;;;;;;13.60;12.38;;;17.50;99.90;;;;;;5046911;28;20602;-33
2023/06/11 04:36:12;;;;;;;12.88;11.75;;;17.50;99.90;;;;;;5046856;28;20076;-33
2023/06/11 04:38:38;;;;;;;13.98;12.73;;;17.50;99.90;;;;;;5046200;28;20405;-33
2023/06/11 04:41:05;;;;;;;14.05;12.75;;;17.60;99.90;;;;;;5047047;28;20033;-33
2023/06/11 04:43:36;;;;;;;12.88;11.85;;;17.60;99.90;;;;;;5045739;28;20033;-33
2023/06/11 04:46:03;;;;;;;14.68;13.18;;;17.70;99.90;;;;;;5045407;28;20033;-33
2023/06/11 04:48:31;;;;;;;14.70;13.30;;;17.70;99.90;;;;;;5044993;28;20037;-33
2023/06/11 04:50:59;;;;;;;13.25;12.02;;;17.80;99.90;;;;;;5035784;28;20049;-33
2023/06/11 04:53:27;;;;;;;13.93;12.63;;;17.90;99.90;;;;;;5047247;28;20509;-33
2023/06/11 04:55:54;;;;;;;15.20;13.75;;;17.90;99.90;;;;;;5030692;28;20343;-33
2023/06/11 04:58:27;;;;;;;13.10;12.05;;;18.00;99.90;;;;;;5030437;28;20084;-33
2023/06/11 05:00:57;;;;;;;14.00;12.80;;;18.00;99.90;;;;;;5030997;28;20041;-33
2023/06/11 05:03:29;;;;;;;15.38;13.52;;;18.10;99.90;;;;;;5035484;28;20042;-33
2023/06/11 05:05:55;;;;;;;15.48;13.93;;;18.10;99.90;;;;;;5050855;28;20132;-33
2023/06/11 05:08:24;;;;;;;13.30;12.00;;;18.20;99.90;;;;;;5046810;28;20113;-33
2023/06/11 05:10:53;;;;;;;13.15;12.05;;;18.30;99.90;;;;;;5051990;28;20103;-33
2023/06/11 05:13:24;;;;;;;14.55;13.05;;;18.40;99.90;;;;;;5051385;28;20037;-33
2023/06/11 05:15:55;;;;;;;14.40;13.27;;;18.50;99.90;;;;;;5046362;28;20124;-33
2023/06/11 05:18:22;;;;;;;15.18;13.63;;;18.50;99.90;;;;;;5043378;28;20064;-33
2023/06/11 05:20:48;;;;;;;14.43;13.15;;;18.60;99.90;;;;;;5045201;28;20053;-32
2023/06/11 05:23:15;;;;;;;14.25;12.95;;;18.70;99.90;;;;;;5045556;28;20033;-32
2023/06/11 05:25:46;;;;;;;14.25;13.00;;;18.80;99.90;;;;;;5030354;28;20033;-33
2023/06/11 05:28:13;;;;;;;14.25;12.95;;;18.80;99.90;;;;;;5044089;28;20046;-33
2023/06/11 05:30:43;;;;;;;14.05;12.75;;;18.90;99.90;;;;;;5046781;28;20046;-33
2023/06/11 05:33:10;;;;;;;13.30;12.10;;;19.00;99.90;;;;;;5045745;28;20036;-33
2023/06/11 05:35:37;;;;;;;15.07;13.10;;;19.10;99.90;;;;;;5029769;28;20033;-33
2023/06/11 05:38:06;;;;;;;14.85;13.65;;;19.20;99.90;;;;;;5031197;28;20037;-33
2023/06/11 05:40:33;;;;;;;14.18;12.90;;;19.30;99.90;;;;;;5046127;28;20120;-33
2023/06/11 05:42:59;;;;;;;14.52;13.32;;;19.40;99.90;;;;;;5022076;28;20402;-33
2023/06/11 05:45:25;;;;;;;14.77;13.18;;;19.60;99.90;;;;;;5030202;28;20112;-32
2023/06/11 05:47:51;;;;;;;15.38;13.82;;;19.70;99.90;;;;;;5040457;28;20141;-34
2023/06/11 05:50:17;;;;;;;14.13;12.73;;;19.70;99.90;;;;;;5031578;28;20041;-34
2023/06/11 05:52:44;;;;;;;13.07;11.93;;;19.80;99.90;;;;;;5030705;28;20393;-33
2023/06/11 05:55:10;;;;;;;13.35;12.18;;;19.90;99.90;;;;;;5048492;28;20092;-33
2023/06/11 05:57:36;;;;;;;14.10;12.65;;;20.00;99.90;;;;;;5047655;28;20394;-33
2023/06/11 06:00:02;;;;;;;13.20;12.02;;;20.10;99.90;;;;;;5049873;28;20042;-34
2023/06/11 06:02:28;;;;;;;13.55;12.38;;;20.20;99.90;;;;;;5045473;28;20040;-33
2023/06/11 06:04:55;;;;;;;14.50;13.20;;;20.30;99.90;;;;;;5049000;28;20041;-33
2023/06/11 06:07:21;;;;;;;12.65;11.52;;;20.40;99.90;;;;;;5014816;28;20037;-32
2023/06/11 06:09:46;;;;;;;13.52;12.13;;;20.50;99.90;;;;;;5048617;28;20048;-33
2023/06/11 06:12:12;;;;;;;13.40;12.30;;;20.60;99.90;;;;;;5049436;28;20383;-33
2023/06/11 06:14:38;;;;;;;12.88;11.55;;;20.70;99.90;;;;;;5048787;28;20474;-34
2023/06/11 06:17:05;;;;;;;12.73;11.63;;;20.90;99.90;;;;;;5045446;28;20034;-34
2023/06/11 06:19:30;;;;;;;13.82;11.90;;;21.00;99.90;;;;;;5049759;28;20038;-34
2023/06/11 06:21:56;;;;;;;13.15;11.82;;;21.10;99.90;;;;;;5034345;28;20345;-33
2023/06/11 06:24:22;;;;;;;12.48;11.38;;;21.20;99.90;;;;;;5032818;28;20049;-34
2023/06/11 06:26:56;;;;;;;12.13;11.13;;;21.20;99.90;;;;;;5041013;28;20120;-34
2023/06/11 06:29:27;;;;;;;;;;;21.40;99.90;;;;;;5048899;28;20044;-34
2023/06/11 06:31:53;;;;;;;13.00;11.73;;;21.50;99.90;;;;;;5047273;28;19983;-34
2023/06/11 06:34:19;;;;;;;11.88;10.77;;;21.60;99.90;;;;;;5049683;28;20499;-34
2023/06/11 06:36:45;;;;;;;13.25;12.15;;;21.70;99.90;;;;;;5032348;28;20075;-34
2023/06/11 06:39:11;;;;;;;12.10;11.20;;;21.80;99.90;;;;;;5048594;28;20362;-34
2023/06/11 06:41:37;;;;;;;13.27;12.00;;;21.90;99.90;;;;;;5039753;28;20030;-34
2023/06/11 06:44:03;;;;;;;13.02;11.63;;;22.00;99.90;;;;;;5045557;28;20048;-34
2023/06/11 06:46:29;;;;;;;11.98;11.07;;;22.20;99.90;;;;;;5033006;28;20033;-34
2023/06/11 06:48:54;;;;;;;12.93;12.00;;;22.30;99.90;;;;;;5049257;28;20041;-34
2023/06/11 06:51:20;;;;;;;11.90;10.90;;;22.40;99.90;;;;;;5047520;28;20059;-34
2023/06/11 06:53:50;;;;;;;12.60;11.60;;;22.60;99.90;;;;;;5018767;28;20045;-34
2023/06/11 06:56:17;;;;;;;13.55;12.35;;;22.80;99.90;;;;;;5036246;28;20048;-34
2023/06/11 06:58:42;;;;;;;13.05;11.85;;;22.90;99.90;;;;;;5030546;28;20045;-34
2023/06/11 07:01:08;;;;;;;12.48;11.35;;;23.00;99.90;;;;;;5047558;28;20033;-34
2023/06/11 07:03:34;;;;;;;11.90;10.90;;;23.00;99.90;;;;;;5027299;28;20026;-35
2023/06/11 07:06:00;;;;;;;12.60;11.50;;;23.10;99.90;;;;;;5047487;28;20090;-34
2023/06/11 07:08:26;;;;;;;11.82;10.82;;;23.20;99.90;;;;;;5047967;28;20086;-34
2023/06/11 07:10:54;;;;;;;12.23;11.13;;;23.30;99.90;;;;;;5030075;28;20064;-34
2023/06/11 07:13:21;;;;;;;11.73;10.82;;;23.40;99.90;;;;;;5048375;28;20353;-34
2023/06/11 07:15:47;;;;;;;12.80;11.65;;;23.40;99.90;;;;;;5048317;28;20042;-34
2023/06/11 07:18:13;;;;;;;11.65;10.52;;;23.50;99.90;;;;;;5032185;28;20053;-35
2023/06/11 07:20:39;;;;;;;11.45;10.38;;;23.60;99.90;;;;;;5048597;28;20041;-34
2023/06/11 07:23:05;;;;;;;11.63;10.73;;;23.70;99.90;;;;;;5034931;28;20041;-34
2023/06/11 07:25:31;;;;;;;12.10;11.10;;;23.90;99.90;;;;;;5045929;28;20039;-33
2023/06/11 07:28:06;;;;;;;12.80;11.70;;;24.10;99.90;;;;;;5046730;28;20145;-34
2023/06/11 07:30:33;;;;;;;12.18;11.00;;;24.30;99.90;;;;;;5046996;28;20402;-34
2023/06/11 07:32:59;;;;;;;11.45;10.45;;;24.50;99.90;;;;;;5048409;28;20041;-34
2023/06/11 07:35:26;;;;;;;11.88;10.88;;;24.70;99.90;;;;;;5048254;28;20041;-35
2023/06/11 07:37:53;;;;;;;11.85;10.70;;;24.70;99.90;;;;;;5048546;28;20120;-35
2023/06/11 07:40:19;;;;;;;11.63;10.48;;;24.80;99.90;;;;;;5047828;28;20041;-34
2023/06/11 07:42:46;;;;;;;11.57;10.57;;;25.00;99.90;;;;;;5048362;28;20120;-34
2023/06/11 07:45:13;;;;;;;10.70;9.80;;;25.20;99.90;;;;;;5031791;28;20474;-35
2023/06/11 07:47:40;;;;;;;12.20;11.20;;;25.40;99.90;;;;;;5031282;28;20076;-34
2023/06/11 07:50:06;;;;;;;11.35;10.35;;;25.40;99.90;;;;;;5031490;28;20041;-35
2023/06/11 07:52:32;;;;;;;11.93;10.93;;;25.50;99.90;;;;;;5047781;28;20157;-35
2023/06/11 07:54:58;;;;;;;11.65;10.60;;;25.50;99.90;;;;;;5047614;28;20129;-35
2023/06/11 07:57:27;;;;;;;11.50;10.60;;;25.60;99.90;;;;;;5047631;28;20050;-33
2023/06/11 07:59:53;;;;;;;11.07;9.98;;;25.70;99.90;;;;;;5047256;28;20057;-33
2023/06/11 08:02:20;;;;;;;11.85;10.75;;;25.90;99.90;;;;;;5032578;28;20037;-33
2023/06/11 08:04:45;;;;;;;11.40;10.60;;;26.00;99.90;;;;;;5047828;28;20041;-33
2023/06/11 08:07:12;;;;;;;11.07;10.10;;;26.10;99.90;;;;;;5047492;28;20176;-33
2023/06/11 08:09:38;;;;;;;11.45;10.30;;;26.20;99.90;;;;;;5047723;28;20497;-33
2023/06/11 08:12:04;;;;;;;10.82;9.82;;;26.30;99.90;;;;;;5047003;28;20398;-33
2023/06/11 08:14:31;;;;;;;10.68;9.65;;;26.50;99.90;;;;;;5014365;28;20041;-32
2023/06/11 08:16:57;;;;;;;10.93;10.07;;;26.80;99.90;;;;;;5041283;28;20052;-33
2023/06/11 08:19:26;;;;;;;10.82;9.82;;;27.10;99.60;;;;;;5047358;28;20029;-34
2023/06/11 08:21:53;;;;;;;10.80;9.82;;;27.20;97.90;;;;;;5047323;28;20115;-33
2023/06/11 08:24:21;;;;;;;10.23;9.32;;;27.40;97.40;;;;;;5047159;28;20052;-33
2023/06/11 08:26:48;;;;;;;9.85;9.05;;;27.40;94.80;;;;;;5047785;28;20561;-32
2023/06/11 08:29:14;;;;;;;10.38;9.38;;;27.40;92.00;;;;;;5047508;28;20068;-33
2023/06/11 08:31:40;;;;;;;10.43;9.60;;;27.50;91.10;;;;;;5031179;28;20041;-34
2023/06/11 08:34:05;;;;;;;9.95;9.10;;;27.60;91.70;;;;;;5047477;28;20382;-34
2023/06/11 08:36:31;;;;;;;9.55;8.65;;;27.80;90.20;;;;;;5047168;28;20037;-33
2023/06/11 08:38:57;;;;;;;9.90;8.90;;;28.00;86.60;;;;;;5047789;28;20129;-33
2023/06/11 08:41:23;;;;;;;9.80;8.98;;;28.10;87.20;;;;;;5047657;28;20121;-33
2023/06/11 08:43:49;;;;;;;9.80;8.90;;;28.30;87.60;;;;;;5047936;28;20075;-33
2023/06/11 08:46:16;;;;;;;9.57;8.82;;;28.30;83.80;;;;;;5032823;28;20088;-33
2023/06/11 08:48:43;;;;;;;9.48;8.68;;;28.50;83.30;;;;;;5048502;28;20430;-34
2023/06/11 08:51:10;;;;;;;9.82;8.95;;;28.70;81.00;;;;;;5048870;28;20045;-32
2023/06/11 08:53:37;;;;;;;9.75;8.98;;;28.80;79.80;;;;;;5048831;28;20042;-34
2023/06/11 08:56:05;;;;;;;9.50;8.70;;;28.80;76.80;;;;;;5048574;28;20041;-33
2023/06/11 08:58:34;;;;;;;9.63;8.82;;;28.80;76.10;;;;;;5047593;28;20043;-34
2023/06/11 09:01:12;;;;;;;9.32;8.60;;;28.90;73.50;;;;;;5048210;28;20037;-33
2023/06/11 09:03:38;;;;;;;10.07;9.18;;;29.00;73.30;;;;;;5047455;28;20037;-34
2023/06/11 09:06:04;;;;;;;9.55;8.85;;;29.20;74.30;;;;;;5032761;28;20045;-33
2023/06/11 09:08:30;;;;;;;9.15;8.45;;;29.40;72.60;;;;;;5049299;28;20049;-33
2023/06/11 09:10:56;;;;;;;9.38;8.68;;;29.70;72.00;;;;;;5033698;28;20048;-33
2023/06/11 09:13:27;;;;;;;9.10;8.48;;;29.90;72.50;;;;;;5029953;28;20362;-33
2023/06/11 09:15:55;;;;;;;9.45;8.75;;;29.80;67.20;;;;;;5046325;28;20038;-33
2023/06/11 09:18:22;;;;;;;8.82;8.13;;;29.90;67.60;;;;;;5047168;28;20200;-33
2023/06/11 09:20:57;;;;;;;8.50;7.82;;;30.00;65.80;;;;;;5046502;28;20048;-33
2023/06/11 09:23:30;;;;;;;8.70;7.95;;;29.90;63.90;;;;;;5042840;28;20115;-33
2023/06/11 09:25:58;;;;;;;9.27;8.48;;;30.10;64.40;;;;;;5043311;28;20434;-33
2023/06/11 09:28:34;;;;;;;9.00;8.30;;;30.30;64.20;;;;;;5050880;28;20490;-33
2023/06/11 09:31:01;;;;;;;8.80;8.10;;;30.40;63.50;;;;;;5051180;28;20041;-33
2023/06/11 09:33:28;;;;;;;8.68;7.97;;;30.70;65.30;;;;;;5052599;28;20560;-33
2023/06/11 09:35:54;;;;;;;9.35;8.27;;;30.80;62.80;;;;;;5051463;28;20095;-33
2023/06/11 09:38:21;;;;;;;8.63;7.93;;;30.60;60.80;;;;;;5033203;28;20037;-33
2023/06/11 09:40:52;;;;;;;8.90;8.20;;;30.40;60.40;;;;;;5050128;28;20037;-33
2023/06/11 09:43:22;;;;;;;8.55;7.75;;;30.30;59.60;;;;;;5032067;28;20037;-33
2023/06/11 09:45:52;;;;;;;8.68;7.97;;;30.40;60.80;;;;;;5049358;28;20124;-33
2023/06/11 09:48:20;;;;;;;8.13;7.53;;;30.80;59.80;;;;;;5030767;28;20045;-33
2023/06/11 09:50:49;;;;;;;7.90;7.20;;;31.00;59.60;;;;;;5045605;28;20132;-33
2023/06/11 09:53:15;;;;;;;8.00;7.30;;;31.20;59.40;;;;;;5047541;28;20389;-33
2023/06/11 09:55:41;;;;;;;8.48;7.45;;;31.60;59.70;;;;;;5044875;28;20444;-33
2023/06/11 09:58:08;;;;;;;8.07;7.45;;;31.80;58.80;;;;;;5030268;28;20497;-34
2023/06/11 10:00:37;;;;;;;8.25;7.55;;;32.10;59.30;;;;;;5046849;28;20470;-33
2023/06/11 10:03:04;;;;;;;7.65;7.05;;;32.10;56.60;;;;;;5033089;28;20071;-33
2023/06/11 10:05:32;;;;;;;7.55;6.95;;;32.20;55.60;;;;;;5041624;28;20041;-34
2023/06/11 10:08:03;;;;;;;7.28;6.78;;;32.30;54.60;;;;;;5048107;28;20041;-33
2023/06/11 10:10:33;;;;;;;7.63;6.95;;;32.30;54.30;;;;;;5049558;28;20045;-33
2023/06/11 10:13:02;;;;;;;7.95;7.28;;;32.40;54.00;;;;;;5027729;28;20037;-34
2023/06/11 10:15:31;;;;;;;7.07;6.57;;;32.10;52.00;;;;;;5030345;28;20048;-33
2023/06/11 10:17:57;;;;;;;7.28;6.57;;;32.10;52.80;;;;;;5045510;28;20033;-33
2023/06/11 10:20:27;;;;;;;7.60;7.00;;;32.30;53.80;;;;;;5022277;28;20061;-33
2023/06/11 10:23:09;;;;;;;7.70;6.45;;;32.40;50.10;;;;;;5046460;28;20071;-33
2023/06/11 10:25:41;;;;;;;6.90;6.30;;;32.50;51.90;;;;;;5013903;28;20041;-33
2023/06/11 10:28:09;;;;;;;7.50;6.63;;;32.60;51.80;;;;;;5044428;28;20034;-34
2023/06/11 10:30:35;;;;;;;7.22;6.63;;;32.80;52.20;;;;;;5040034;28;20180;-34
2023/06/11 10:33:01;;;;;;;7.53;6.85;;;33.00;52.20;;;;;;5039764;28;20048;-34
2023/06/11 10:35:32;;;;;;;7.10;6.40;;;33.30;51.70;;;;;;5024837;28;20041;-34
2023/06/11 10:38:06;;;;;;;7.20;6.70;;;33.50;50.00;;;;;;5048643;28;20034;-35
2023/06/11 10:40:36;;;;;;;6.78;6.28;;;33.70;49.40;;;;;;5043024;28;20119;-34
2023/06/11 10:43:16;;;;;;;6.80;6.20;;;33.60;48.40;;;;;;5045859;28;20290;-36
2023/06/11 10:45:42;;;;;;;10.65;6.65;;;33.90;49.00;;;;;;5043120;28;20044;-38
2023/06/11 10:48:10;;;;;;;6.97;6.35;;;34.00;49.10;;;;;;5029584;28;20045;-39
2023/06/11 10:50:36;;;;;;;7.55;6.95;;;34.00;48.70;;;;;;5027677;28;20037;-37
2023/06/11 10:53:08;;;;;;;6.88;6.38;;;34.10;46.60;;;;;;5039963;28;20040;-37
2023/06/11 10:55:34;;;;;;;7.45;6.57;;;34.10;47.70;;;;;;5028149;28;20049;-36
2023/06/11 10:58:01;;;;;;;7.45;6.90;;;34.20;46.90;;;;;;5045639;28;20037;-38
2023/06/11 11:00:32;;;;;;;7.25;6.65;;;34.10;46.30;;;;;;5045674;28;20099;-37
2023/06/11 11:03:04;;;;;;;7.63;6.93;;;34.30;46.40;;;;;;5046397;28;20037;-35
2023/06/11 11:05:31;;;;;;;6.50;6.05;;;34.40;45.50;;;;;;5010165;28;20495;-36
2023/06/11 11:08:00;;;;;;;7.70;7.03;;;34.30;45.80;;;;;;5049795;28;20060;-36
2023/06/11 11:10:27;;;;;;;6.63;6.03;;;34.60;45.80;;;;;;5031307;28;20091;-37
2023/06/11 11:13:28;;;;;;;6.65;6.07;;;34.70;44.70;;;;;;5029176;28;20108;-33
2023/06/11 11:16:23;;;;;;;7.05;6.53;;;34.90;45.40;;;;;;5019375;28;20049;-33
2023/06/11 11:18:50;;;;;;;7.05;6.63;;;34.80;43.40;;;;;;5008088;28;20064;-34
2023/06/11 11:23:57;;;;;;;7.18;6.57;;;34.40;43.30;;;;;;5045176;28;20468;-82
2023/06/11 11:26:23;;;;;;;7.22;6.50;;;34.30;42.80;;;;;;5050246;28;20669;-82
2023/06/11 11:28:49;;;;;;;6.97;6.40;;;34.60;45.10;;;;;;5027119;28;20156;-83
2023/06/11 11:31:20;;;;;;;7.05;6.53;;;34.80;42.90;;;;;;5014138;28;20053;-82
2023/06/11 11:33:50;;;;;;;7.10;6.43;;;34.50;43.20;;;;;;5020521;28;20052;-82
2023/06/11 11:36:16;;;;;;;6.93;6.43;;;34.20;42.20;;;;;;5024217;28;20037;-82
2023/06/11 11:38:44;;;;;;;6.82;6.32;;;34.30;43.60;;;;;;5030011;28;20044;-83
2023/06/11 11:41:10;;;;;;;7.43;6.72;;;34.40;43.30;;;;;;5030222;28;20065;-82
2023/06/11 11:43:43;;;;;;;8.00;7.30;;;34.70;44.10;;;;;;5016032;28;20046;-83
2023/06/11 11:46:17;;;;;;;7.60;7.00;;;34.80;41.70;;;;;;5005351;28;20088;-84
2023/06/11 11:48:43;;;;;;;7.82;7.18;;;34.70;42.50;;;;;;5005298;28;20042;-84
2023/06/11 11:51:08;;;;;;;7.43;6.70;;;34.90;42.00;;;;;;5012452;28;20078;-84
2023/06/11 11:53:36;;;;;;;8.13;7.50;;;34.70;41.40;;;;;;5039217;28;20038;-84
2023/06/11 11:56:03;;;;;;;7.30;6.68;;;34.20;42.00;;;;;;5023920;28;20049;-83
2023/06/11 11:58:36;;;;;;;8.05;7.35;;;34.30;42.30;;;;;;5036320;28;20042;-84
2023/06/11 12:01:02;;;;;;;7.90;7.40;;;33.80;41.50;;;;;;5013650;28;20409;-84
2023/06/11 12:03:28;;;;;;;7.55;6.90;;;33.40;42.60;;;;;;5014028;28;20038;-83
2023/06/11 12:06:01;;;;;;;7.72;7.13;;;33.50;42.00;;;;;;5030144;28;20040;-83
2023/06/11 12:08:31;;;;;;;7.65;7.05;;;33.60;43.60;;;;;;5016779;28;20061;-85
2023/06/11 12:10:58;;;;;;;8.57;7.28;;;33.70;44.20;;;;;;5018725;28;20049;-83
2023/06/11 12:13:24;;;;;;;8.20;7.50;;;33.90;44.30;;;;;;5009613;28;20073;-84
2023/06/11 12:15:50;;;;;;;7.32;6.63;;;34.30;44.60;;;;;;5044972;28;20453;-84
2023/06/11 12:18:16;;;;;;;7.75;7.15;;;34.60;45.10;;;;;;5019550;28;20053;-84
2023/06/11 12:20:45;;;;;;;7.82;7.05;;;34.30;43.70;;;;;;5032653;28;20041;-84
2023/06/11 12:23:14;;;;;;;8.27;7.25;;;34.10;45.00;;;;;;5039413;28;20462;-84
2023/06/11 12:25:42;;;;;;;7.32;6.72;;;34.00;44.70;;;;;;5023111;28;20600;-83
2023/06/11 12:28:07;;;;;;;7.50;6.80;;;33.80;45.60;;;;;;5009334;28;20042;-84
2023/06/11 12:30:35;;;;;;;7.53;7.03;;;34.10;43.00;;;;;;5025289;28;20033;-83
2023/06/11 12:33:03;;;;;;;7.20;6.60;;;34.50;43.90;;;;;;5022862;28;20038;-82
2023/06/11 12:35:30;;;;;;;7.03;6.38;;;34.90;41.10;;;;;;5042975;28;20079;-83
2023/06/11 12:37:56;;;;;;;7.63;6.90;;;35.20;43.40;;;;;;5025920;28;20079;-83
2023/06/11 12:40:22;;;;;;;7.40;6.72;;;35.30;41.60;;;;;;5020984;28;20708;-83